createdAt,value
2019-02-20T00:03:16.893Z,99.90
2019-02-20T00:08:10.468Z,98.40
2019-02-20T00:13:01.963Z,97.00
2019-02-20T00:17:55.606Z,97.50
2019-02-20T00:22:47.054Z,99.40
2019-02-20T00:27:40.657Z,99.50
2019-02-20T00:32:32.096Z,99.40
2019-02-20T00:37:25.696Z,98.20
2019-02-20T00:42:17.115Z,98.50
2019-02-20T00:47:08.552Z,99.70
2019-02-20T00:51:59.982Z,99.90
2019-02-20T00:56:51.348Z,98.80
2019-02-20T01:01:44.986Z,97.70
2019-02-20T01:06:36.409Z,99.90
2019-02-20T01:11:27.840Z,99.90
2019-02-20T01:16:19.241Z,99.90
2019-02-20T01:21:10.622Z,99.90
2019-02-20T01:26:02.000Z,99.90
2019-02-20T01:30:53.402Z,99.90
2019-02-20T01:35:44.800Z,99.90
2019-02-20T01:40:36.201Z,99.90
2019-02-20T01:45:27.615Z,98.80
2019-02-20T01:50:19.011Z,98.50
2019-02-20T01:55:10.404Z,99.90
2019-02-20T02:00:01.850Z,99.90
2019-02-20T02:04:53.225Z,98.50
2019-02-20T02:09:44.615Z,99.90
2019-02-20T02:14:38.202Z,99.90
2019-02-20T02:24:23.282Z,99.90
2019-02-20T02:29:19.171Z,99.90
2019-02-20T02:34:10.733Z,99.90
2019-02-20T02:39:01.977Z,99.90
2019-02-20T02:44:00.236Z,99.20
2019-02-20T02:48:51.685Z,99.90
2019-02-20T02:53:43.149Z,99.90
2019-02-20T02:58:34.485Z,99.90
2019-02-20T03:08:19.449Z,98.70
2019-02-20T03:13:13.149Z,99.10
2019-02-20T03:18:06.851Z,98.30
2019-02-20T03:23:02.724Z,97.70
2019-02-20T03:27:56.483Z,97.30
2019-02-20T03:32:50.161Z,99.10
2019-02-20T03:37:41.600Z,99.90
2019-02-20T03:42:32.942Z,99.90
2019-02-20T03:47:24.440Z,97.80
2019-02-20T03:52:15.858Z,97.00
2019-02-20T03:57:07.191Z,97.00
2019-02-20T04:02:00.906Z,99.90
2019-02-20T04:06:54.607Z,99.90
2019-02-20T04:11:46.067Z,99.90
2019-02-20T04:16:41.953Z,99.90
2019-02-20T04:21:35.618Z,99.90
2019-02-20T04:26:27.094Z,99.90
2019-02-20T04:31:18.468Z,99.20
2019-02-20T04:36:09.882Z,98.40
2019-02-20T04:41:01.308Z,99.90
2019-02-20T04:45:52.781Z,99.90
2019-02-20T04:50:46.397Z,99.90
2019-02-20T04:55:37.835Z,99.90
2019-02-20T05:00:29.182Z,98.90
2019-02-20T05:05:22.943Z,99.80
2019-02-20T05:15:10.259Z,99.90
2019-02-20T05:20:01.772Z,99.90
2019-02-20T05:24:53.124Z,99.90
2019-02-20T05:29:44.604Z,99.90
2019-02-20T05:34:35.907Z,99.90
2019-02-20T05:39:27.335Z,99.90
2019-02-20T05:44:18.677Z,99.90
2019-02-20T05:49:10.071Z,99.90
2019-02-20T05:54:01.556Z,99.90
2019-02-20T05:58:55.236Z,99.90
2019-02-20T06:03:46.657Z,99.90
2019-02-20T06:08:38.067Z,99.90
2019-02-20T06:13:29.495Z,99.90
2019-02-20T06:18:20.918Z,99.90
2019-02-20T06:23:12.221Z,99.90
2019-02-20T06:28:03.641Z,99.90
2019-02-20T06:32:55.046Z,99.90
2019-02-20T06:37:46.446Z,99.90
2019-02-20T06:42:37.901Z,99.90
2019-02-20T06:47:29.295Z,99.90
2019-02-20T06:52:20.684Z,99.90
2019-02-20T06:57:12.055Z,99.90
2019-02-20T07:02:03.459Z,99.90
2019-02-20T07:06:54.864Z,99.90
2019-02-20T07:11:48.475Z,99.90
2019-02-20T07:16:40.009Z,99.90
2019-02-20T07:21:31.361Z,99.90
2019-02-20T07:26:22.779Z,99.90
2019-02-20T07:36:07.860Z,98.60
2019-02-20T07:40:59.253Z,99.40
2019-02-20T07:45:50.605Z,98.90
2019-02-20T07:50:44.217Z,97.40
2019-02-20T07:55:35.694Z,97.40
2019-02-20T08:00:27.101Z,97.00
2019-02-20T08:05:18.486Z,97.60
2019-02-20T08:10:09.830Z,96.30
2019-02-20T08:15:01.303Z,95.20
2019-02-20T08:19:52.638Z,93.90
2019-02-20T08:24:44.055Z,93.80
2019-02-20T08:29:35.438Z,93.60
2019-02-20T08:34:26.838Z,94.60
2019-02-20T08:39:18.228Z,94.20
2019-02-20T08:44:09.656Z,94.50
2019-02-20T08:49:01.067Z,94.80
2019-02-20T08:53:54.711Z,96.60
2019-02-20T08:58:46.169Z,96.50
2019-02-20T09:03:37.591Z,97.20
2019-02-20T09:08:29.022Z,98.00
2019-02-20T09:13:20.344Z,95.90
2019-02-20T09:18:11.799Z,96.50
2019-02-20T09:23:05.344Z,94.00
2019-02-20T09:27:56.885Z,94.60
2019-02-20T09:32:48.382Z,92.70
2019-02-20T09:37:39.716Z,93.40
2019-02-20T09:42:31.224Z,90.90
2019-02-20T09:47:22.583Z,88.00
2019-02-20T09:52:13.975Z,83.00
2019-02-20T09:57:05.398Z,81.30
2019-02-20T10:01:56.819Z,71.40
2019-02-20T10:06:50.382Z,64.50
2019-02-20T10:11:41.865Z,65.40
2019-02-20T10:16:33.189Z,63.60
2019-02-20T10:21:24.697Z,55.30
2019-02-20T10:26:15.995Z,57.10
2019-02-20T10:31:07.492Z,55.30
2019-02-20T10:35:58.876Z,54.70
2019-02-20T10:40:50.345Z,51.70
2019-02-20T10:45:41.714Z,51.90
2019-02-20T10:50:33.126Z,52.10
2019-02-20T10:55:24.490Z,42.10
2019-02-20T11:00:24.832Z,41.80
2019-02-20T11:05:07.329Z,43.50
2019-02-20T11:10:00.994Z,42.20
2019-02-20T11:14:52.478Z,44.20
2019-02-20T11:19:43.882Z,39.00
2019-02-20T11:24:35.307Z,44.70
2019-02-20T11:29:26.679Z,38.80
2019-02-20T11:34:20.189Z,34.70
2019-02-20T11:39:09.590Z,38.00
2019-02-20T11:44:01.036Z,34.90
2019-02-20T11:48:52.398Z,34.20
2019-02-20T11:53:43.789Z,34.40
2019-02-20T11:58:35.192Z,35.30
2019-02-20T12:03:26.646Z,32.10
2019-02-20T12:08:18.006Z,31.20
2019-02-20T12:13:09.449Z,35.10
2019-02-20T12:18:00.842Z,32.90
2019-02-20T12:22:52.321Z,32.40
2019-02-20T12:27:43.749Z,34.00
2019-02-20T12:37:26.505Z,32.20
2019-02-20T12:42:17.958Z,33.00
2019-02-20T12:47:09.363Z,32.50
2019-02-20T12:52:00.829Z,30.10
2019-02-20T12:56:52.242Z,31.70
2019-02-20T13:01:43.614Z,32.80
2019-02-20T13:06:35.049Z,30.00
2019-02-20T13:11:26.485Z,30.60
2019-02-20T13:16:17.903Z,30.50
2019-02-20T13:21:11.477Z,28.90
2019-02-20T13:26:00.719Z,30.80
2019-02-20T13:30:52.074Z,31.30
2019-02-20T13:35:43.592Z,28.00
2019-02-20T13:40:34.917Z,30.30
2019-02-20T13:45:26.333Z,27.40
2019-02-20T13:50:17.710Z,26.50
2019-02-20T13:55:09.174Z,26.40
2019-02-20T14:00:00.738Z,27.40
2019-02-20T14:04:51.982Z,28.10
2019-02-20T14:09:43.414Z,23.30
2019-02-20T14:14:34.806Z,23.30
2019-02-20T14:19:26.181Z,23.50
2019-02-20T14:24:17.604Z,22.40
2019-02-20T14:29:08.943Z,22.70
2019-02-20T14:34:01.031Z,21.70
2019-02-20T14:38:51.740Z,24.20
2019-02-20T14:43:43.186Z,21.90
2019-02-20T14:48:34.715Z,22.40
2019-02-20T14:53:26.041Z,22.40
2019-02-20T14:58:17.853Z,23.30
2019-02-20T15:03:08.865Z,23.30
2019-02-20T15:08:02.333Z,23.40
2019-02-20T15:12:51.718Z,22.90
2019-02-20T15:17:43.089Z,23.50
2019-02-20T15:22:34.529Z,23.80
2019-02-20T15:27:29.369Z,23.00
2019-02-20T15:32:17.319Z,23.40
2019-02-20T15:37:08.757Z,24.10
2019-02-20T15:42:00.743Z,24.90
2019-02-20T15:46:51.585Z,26.40
2019-02-20T15:51:42.983Z,26.30
2019-02-20T15:56:34.395Z,27.10
2019-02-20T16:01:25.794Z,26.50
2019-02-20T16:06:17.243Z,26.90
2019-02-20T16:11:08.556Z,27.40
2019-02-20T16:16:00.038Z,27.40
2019-02-20T16:20:51.464Z,29.20
2019-02-20T16:25:44.363Z,29.00
2019-02-20T16:30:34.235Z,30.00
2019-02-20T16:35:25.617Z,30.60
2019-02-20T16:40:16.998Z,31.20
2019-02-20T16:45:08.392Z,32.20
2019-02-20T16:50:00.491Z,32.70
2019-02-20T16:54:51.220Z,35.50
2019-02-20T16:59:42.572Z,34.20
2019-02-20T17:04:33.992Z,35.00
2019-02-20T17:09:27.682Z,39.30
2019-02-20T17:14:19.112Z,41.80
2019-02-20T17:19:10.560Z,42.60
2019-02-20T17:24:01.951Z,42.60
2019-02-20T17:28:53.353Z,44.20
2019-02-20T17:33:45.222Z,45.70
2019-02-20T17:38:36.101Z,46.10
2019-02-20T17:43:27.551Z,46.90
2019-02-20T17:48:19.654Z,46.80
2019-02-20T17:53:10.350Z,47.40
2019-02-20T17:58:01.799Z,48.20
2019-02-20T18:02:53.167Z,47.50
2019-02-20T18:07:52.299Z,49.60
2019-02-20T18:12:35.909Z,49.20
2019-02-20T18:17:27.371Z,48.50
2019-02-20T18:22:18.731Z,49.30
2019-02-20T18:27:10.150Z,58.80
2019-02-20T18:32:01.676Z,69.70
2019-02-20T18:36:53.047Z,68.20
2019-02-20T18:41:44.417Z,68.80
2019-02-20T18:46:36.054Z,78.30
2019-02-20T18:51:27.224Z,78.40
2019-02-20T18:56:18.570Z,75.10
2019-02-20T19:01:10.042Z,68.10
2019-02-20T19:06:01.510Z,74.30
2019-02-20T19:10:55.024Z,77.40
2019-02-20T19:15:48.665Z,82.80
2019-02-20T19:20:42.087Z,86.00
2019-02-20T19:25:31.551Z,86.20
2019-02-20T19:30:22.989Z,95.60
2019-02-20T19:35:14.343Z,94.10
2019-02-20T19:40:05.733Z,92.20
2019-02-20T19:44:57.158Z,84.80
2019-02-20T19:49:50.821Z,89.60
2019-02-20T19:54:44.578Z,92.40
2019-02-20T19:59:36.162Z,93.00
2019-02-20T20:04:27.518Z,91.30
2019-02-20T20:14:12.595Z,94.40
2019-02-20T20:19:04.043Z,97.10
2019-02-20T20:23:55.411Z,97.20
2019-02-20T20:28:46.816Z,95.70
2019-02-20T20:33:38.156Z,92.70
2019-02-20T20:38:31.737Z,93.60
2019-02-20T20:43:23.205Z,94.90
2019-02-20T20:48:14.556Z,94.10
2019-02-20T20:53:05.999Z,91.90
2019-02-20T20:57:59.591Z,91.50
2019-02-20T21:02:51.134Z,96.70
2019-02-20T21:07:42.488Z,96.70
2019-02-20T21:12:33.931Z,97.40
2019-02-20T21:17:25.252Z,95.10
2019-02-20T21:22:16.726Z,93.10
2019-02-20T21:27:08.053Z,90.90
2019-02-20T21:32:01.436Z,91.60
2019-02-20T21:36:50.942Z,91.40
2019-02-20T21:41:42.371Z,92.10
2019-02-20T21:46:33.728Z,89.90
2019-02-20T21:51:25.192Z,92.30
2019-02-20T21:56:18.806Z,96.90
2019-02-20T22:01:10.215Z,97.00
2019-02-20T22:06:01.777Z,96.50
2019-02-20T22:15:47.487Z,96.60
2019-02-20T22:20:40.161Z,95.60
2019-02-20T22:25:29.566Z,98.60
2019-02-20T22:30:20.953Z,96.70
2019-02-20T22:35:14.566Z,98.40
2019-02-20T22:40:06.022Z,97.60
2019-02-20T22:44:57.372Z,99.90
2019-02-20T22:49:48.750Z,96.90
2019-02-20T22:54:40.176Z,99.00
2019-02-20T22:59:31.631Z,99.90
2019-02-20T23:04:22.937Z,99.90
2019-02-20T23:09:16.582Z,99.80
2019-02-20T23:14:08.003Z,98.60
2019-02-20T23:19:03.902Z,97.30
2019-02-20T23:23:55.329Z,99.90
2019-02-20T23:28:48.923Z,99.90
2019-02-20T23:33:40.395Z,99.60
2019-02-20T23:38:31.765Z,97.50
2019-02-20T23:43:23.179Z,97.90
2019-02-20T23:48:19.036Z,97.70
2019-02-20T23:58:06.402Z,99.90
